Time;durP1;ratioP1;P1;durP2;ratioP2;P2;SDS_P1;SDS_P2;PMS_P1;PMS_P2;Temp;Humidity;BMP_temperature;BMP_pressure;BME280_temperature;BME280_humidity;BME280_pressure;Samples;Min_cycle;Max_cycle;Signal;HPM_P1;HPM_P2
2023/01/17 00:02:10;;;;;;;17.05;10.18;;;256.50;2252.80;;;;;;4881902;29;20491;-88
2023/01/17 00:10:13;;;;;;;12.90;8.10;;;256.50;2252.80;;;;;;4898722;29;20440;-90
2023/01/17 00:12:44;;;;;;;17.87;9.83;;;256.40;2252.80;;;;;;4898114;29;20048;-88
2023/01/17 00:15:10;;;;;;;10.48;6.32;;;256.40;2252.80;;;;;;4898195;29;20143;-88
2023/01/17 00:17:35;;;;;;;11.98;8.57;;;256.50;2252.80;;;;;;4897635;29;20469;-88
2023/01/17 01:35:53;;;;;;;23.38;12.45;;;256.50;2252.80;;;;;;4901298;29;20152;-88
2023/01/17 01:38:23;;;;;;;13.18;8.15;;;256.50;2252.80;;;;;;4884236;29;20084;-87
2023/01/17 01:40:52;;;;;;;13.07;7.65;;;256.50;2252.80;;;;;;4884079;29;20056;-87
2023/01/17 01:43:20;;;;;;;10.52;6.68;;;256.40;2252.80;;;;;;4884093;29;20155;-88
2023/01/17 01:45:56;;;;;;;10.98;8.30;;;256.40;2252.80;;;;;;4883804;29;20084;-88
2023/01/17 01:48:27;;;;;;;14.50;9.40;;;256.30;2252.80;;;;;;4884125;29;20433;-89
2023/01/17 01:50:53;;;;;;;16.77;11.25;;;256.20;2252.80;;;;;;4883971;29;20032;-89
2023/01/17 01:53:20;;;;;;;16.25;11.38;;;256.20;2252.80;;;;;;4883404;29;20029;-87
2023/01/17 01:55:49;;;;;;;12.80;9.20;;;256.30;2252.80;;;;;;4883524;29;20028;-88
2023/01/17 01:58:23;;;;;;;15.45;9.48;;;256.20;2252.80;;;;;;4883694;29;20028;-88
2023/01/17 02:00:49;;;;;;;13.38;8.02;;;256.20;2252.80;;;;;;4884020;29;20084;-88
2023/01/17 02:03:20;;;;;;;17.48;11.05;;;256.20;2252.80;;;;;;4883886;29;20037;-87
2023/01/17 02:05:46;;;;;;;24.08;12.55;;;256.20;2252.80;;;;;;4900447;29;20512;-88
2023/01/17 02:08:18;;;;;;;11.55;7.50;;;256.20;2252.80;;;;;;4900397;29;20388;-88
2023/01/17 02:10:45;;;;;;;10.82;7.25;;;256.30;2252.80;;;;;;4883705;29;20028;-88
2023/01/17 02:13:14;;;;;;;9.57;6.60;;;256.30;2252.80;;;;;;4883498;29;20041;-89
2023/01/17 02:16:04;;;;;;;246.20;113.38;;;256.30;2252.80;;;;;;4883532;29;20036;-87
2023/01/17 02:18:38;;;;;;;77.53;39.20;;;256.30;2252.80;;;;;;4883740;29;20060;-88
2023/01/17 02:21:22;;;;;;;27.88;16.63;;;256.30;2252.80;;;;;;4900247;29;20112;-87
2023/01/17 02:23:56;;;;;;;18.98;10.90;;;256.30;2252.80;;;;;;4900416;29;20120;-87
2023/01/17 02:26:41;;;;;;;104.57;51.65;;;256.30;2252.80;;;;;;4883198;29;20091;-86
2023/01/17 02:29:57;;;;;;;36.20;19.55;;;256.20;2252.80;;;;;;4883430;29;20033;-87
2023/01/17 02:32:26;;;;;;;43.13;23.63;;;256.20;2252.80;;;;;;4883236;29;20412;-87
2023/01/17 02:35:17;;;;;;;29.92;18.48;;;256.20;2252.80;;;;;;4882529;29;20059;-87
2023/01/17 02:38:07;;;;;;;21.83;13.05;;;256.10;2252.80;;;;;;4883191;29;20036;-86
2023/01/17 02:40:54;;;;;;;24.75;14.05;;;256.10;2252.80;;;;;;4881976;29;20028;-88
2023/01/17 02:43:22;;;;;;;16.65;9.88;;;256.10;2252.80;;;;;;4883164;29;20385;-87
2023/01/17 02:45:48;;;;;;;15.70;9.20;;;256.10;2252.80;;;;;;4883094;29;20036;-88
2023/01/17 02:48:19;;;;;;;16.90;10.00;;;256.10;2252.80;;;;;;4882848;29;20461;-87
2023/01/17 02:51:00;;;;;;;18.60;11.20;;;256.10;2252.80;;;;;;4882932;29;20032;-87
2023/01/17 02:53:42;;;;;;;14.52;9.25;;;256.00;2252.80;;;;;;4883087;29;20036;-87
2023/01/17 02:56:26;;;;;;;11.05;7.45;;;256.10;2252.80;;;;;;4882897;29;20033;-88
2023/01/17 02:58:54;;;;;;;13.35;6.97;;;256.10;2252.80;;;;;;4882789;29;20055;-87
2023/01/17 03:01:41;;;;;;;50.63;25.63;;;256.20;2252.80;;;;;;4882628;29;20035;-87
2023/01/17 03:04:31;;;;;;;24.10;13.65;;;256.10;2252.80;;;;;;4882846;29;20032;-81
2023/01/17 03:07:02;;;;;;;10.45;6.82;;;256.10;2252.80;;;;;;4885248;29;20041;-81
2023/01/17 03:09:30;;;;;;;15.38;8.20;;;256.20;2252.80;;;;;;4865256;29;20489;-80
2023/01/17 03:11:58;;;;;;;8.82;4.93;;;256.30;2252.80;;;;;;4863231;29;20033;-88
2023/01/17 03:14:24;;;;;;;21.05;12.13;;;256.30;2252.80;;;;;;4864181;29;20048;-85
2023/01/17 03:16:49;;;;;;;9.35;5.68;;;256.30;2252.80;;;;;;4863942;29;20465;-88
2023/01/17 03:19:15;;;;;;;9.02;5.03;;;256.40;2252.80;;;;;;4864375;29;20036;-88
2023/01/17 03:21:41;;;;;;;8.70;4.82;;;256.50;2252.80;;;;;;4863787;29;20033;-87
2023/01/17 03:24:07;;;;;;;13.38;7.25;;;256.60;2252.80;;;;;;4863853;29;20061;-87
2023/01/17 03:26:33;;;;;;;16.67;8.95;;;256.50;2252.80;;;;;;4881001;29;20033;-86
2023/01/17 03:28:59;;;;;;;52.83;24.85;;;256.50;2252.80;;;;;;4879624;29;20191;-88
2023/01/17 03:31:25;;;;;;;22.10;12.18;;;256.50;2252.80;;;;;;4879764;29;20453;-87
2023/01/17 03:33:50;;;;;;;6.15;4.32;;;256.50;2252.80;;;;;;4864108;29;20029;-87
2023/01/17 03:36:17;;;;;;;12.45;5.97;;;256.50;2252.80;;;;;;4863828;29;20036;-87
2023/01/17 03:38:43;;;;;;;13.10;7.30;;;256.60;2252.80;;;;;;4863951;29;20033;-86
2023/01/17 03:41:09;;;;;;;10.75;6.25;;;256.60;2252.80;;;;;;4863870;29;20040;-87
2023/01/17 03:43:34;;;;;;;10.48;6.20;;;256.60;2252.80;;;;;;4878475;29;20033;-88
2023/01/17 03:46:01;;;;;;;21.88;11.98;;;256.50;2252.80;;;;;;4879632;29;20033;-87
2023/01/17 03:48:27;;;;;;;19.00;9.40;;;256.50;2252.80;;;;;;4878529;29;20025;-87
2023/01/17 03:50:53;;;;;;;9.10;6.00;;;256.50;2252.80;;;;;;4878875;29;20033;-88
2023/01/17 03:53:18;;;;;;;60.15;29.27;;;256.50;2252.80;;;;;;4879347;29;20037;-88
2023/01/17 03:55:45;;;;;;;30.20;15.68;;;256.50;2252.80;;;;;;4879704;29;20067;-89
2023/01/17 03:58:11;;;;;;;7.28;4.65;;;256.50;2252.80;;;;;;4879012;29;20025;-87
2023/01/17 04:00:37;;;;;;;6.90;4.03;;;256.60;2252.80;;;;;;4879329;29;20480;-88
2023/01/17 04:03:02;;;;;;;6.22;3.78;;;256.60;2252.80;;;;;;4879030;29;20045;-89
2023/01/17 04:05:28;;;;;;;7.13;4.00;;;256.70;2252.80;;;;;;4863137;29;20025;-86
2023/01/17 04:07:54;;;;;;;17.67;10.48;;;256.80;2252.80;;;;;;4880008;29;20478;-88
2023/01/17 04:10:20;;;;;;;8.50;5.75;;;256.70;2252.80;;;;;;4878952;29;20081;-88
2023/01/17 04:12:45;;;;;;;6.00;4.25;;;256.70;2252.80;;;;;;4878654;29;20037;-87
2023/01/17 04:15:11;;;;;;;8.77;4.43;;;256.80;2252.80;;;;;;4878907;29;20029;-88
2023/01/17 04:17:37;;;;;;;8.18;4.97;;;256.70;2252.80;;;;;;4880170;29;20025;-85
2023/01/17 04:20:03;;;;;;;8.18;5.07;;;256.70;2252.80;;;;;;4882464;29;20108;-87
2023/01/17 04:22:30;;;;;;;8.68;5.13;;;256.70;2252.80;;;;;;4866831;29;20132;-87
2023/01/17 04:24:57;;;;;;;8.05;4.60;;;256.80;2252.80;;;;;;4881698;29;20184;-87
2023/01/17 04:27:22;;;;;;;6.43;4.50;;;256.80;2252.80;;;;;;4866920;29;20085;-88
2023/01/17 04:29:48;;;;;;;6.75;5.00;;;256.80;2252.80;;;;;;4882534;29;20029;-88
2023/01/17 04:32:14;;;;;;;7.20;4.93;;;256.80;2252.80;;;;;;4881983;29;20036;-87
2023/01/17 04:34:40;;;;;;;6.85;4.63;;;256.70;2252.80;;;;;;4881810;29;20028;-87
2023/01/17 04:37:06;;;;;;;8.80;5.22;;;256.70;2252.80;;;;;;4885159;29;20488;-87
2023/01/17 04:39:32;;;;;;;8.77;5.63;;;256.70;2252.80;;;;;;4884372;29;20025;-86
2023/01/17 04:41:57;;;;;;;8.00;4.68;;;256.70;2252.80;;;;;;4901671;29;20116;-87
2023/01/17 04:44:23;;;;;;;7.05;4.45;;;256.80;2252.80;;;;;;4901650;29;20036;-87
2023/01/17 04:46:49;;;;;;;10.55;4.63;;;256.80;2252.80;;;;;;4884721;29;20024;-87
2023/01/17 04:49:14;;;;;;;6.72;4.22;;;256.70;2252.80;;;;;;4885482;29;20028;-88
2023/01/17 04:51:40;;;;;;;7.55;4.30;;;256.70;2252.80;;;;;;4908649;29;20020;-84
2023/01/17 04:54:06;;;;;;;8.05;4.57;;;256.70;2252.80;;;;;;4908891;29;20020;-87
2023/01/17 04:56:32;;;;;;;45.47;22.10;;;256.70;2252.80;;;;;;4902804;29;20466;-86
2023/01/17 04:58:58;;;;;;;9.95;5.80;;;256.70;2252.80;;;;;;4884983;29;20410;-88
2023/01/17 05:01:23;;;;;;;12.30;7.15;;;256.80;2252.80;;;;;;4884803;29;20036;-89
2023/01/17 05:03:49;;;;;;;5.72;3.45;;;256.80;2252.80;;;;;;4884923;29;20406;-88
2023/01/17 05:06:15;;;;;;;13.43;5.88;;;256.70;2252.80;;;;;;4884930;29;20052;-86
2023/01/17 05:08:41;;;;;;;6.57;3.92;;;256.70;2252.80;;;;;;4884555;29;20040;-88
2023/01/17 05:11:06;;;;;;;6.45;4.40;;;256.70;2252.80;;;;;;4884756;29;20028;-88
2023/01/17 05:13:32;;;;;;;9.43;4.68;;;256.60;2252.80;;;;;;4884579;29;20378;-86
2023/01/17 05:15:58;;;;;;;9.88;5.82;;;256.70;2252.80;;;;;;4884374;29;20128;-88
2023/01/17 05:18:24;;;;;;;8.40;5.07;;;256.80;2252.80;;;;;;4901614;29;20039;-87
2023/01/17 05:20:50;;;;;;;4.72;2.97;;;256.80;2252.80;;;;;;4884596;29;20033;-89
2023/01/17 05:23:15;;;;;;;5.22;2.85;;;256.90;2252.80;;;;;;4884328;29;20033;-88
2023/01/17 05:25:43;;;;;;;5.95;3.60;;;256.90;2252.80;;;;;;4901506;29;20056;-89
2023/01/17 05:28:10;;;;;;;5.25;3.65;;;256.90;2252.80;;;;;;4884181;29;20091;-88
2023/01/17 05:30:37;;;;;;;13.63;9.55;;;256.90;2252.80;;;;;;4884512;29;20040;-86
2023/01/17 05:33:03;;;;;;;5.90;4.18;;;256.80;2252.80;;;;;;4884606;29;20039;-88
2023/01/17 05:35:33;;;;;;;8.60;5.93;;;256.80;2252.80;;;;;;4884174;29;20029;-87
2023/01/17 05:37:59;;;;;;;12.15;7.93;;;256.80;2252.80;;;;;;4884473;29;20036;-88
2023/01/17 05:40:27;;;;;;;10.82;6.95;;;256.80;2252.80;;;;;;4884135;29;20025;-87
2023/01/17 05:42:56;;;;;;;17.55;10.10;;;256.70;2252.80;;;;;;4883895;29;20071;-88
2023/01/17 05:45:24;;;;;;;13.50;8.23;;;256.70;2252.80;;;;;;4884081;29;20037;-88
2023/01/17 05:47:51;;;;;;;22.27;13.68;;;256.70;2252.80;;;;;;4900868;29;20052;-87
2023/01/17 05:50:20;;;;;;;11.02;6.75;;;256.60;2252.80;;;;;;4883836;29;20029;-87
2023/01/17 05:52:51;;;;;;;6.65;3.60;;;256.60;2252.80;;;;;;4883868;29;20403;-87
2023/01/17 05:55:17;;;;;;;8.57;4.63;;;256.70;2252.80;;;;;;4900594;29;20147;-87
2023/01/17 05:57:43;;;;;;;8.48;4.82;;;256.80;2252.80;;;;;;4883404;29;20039;-87
2023/01/17 06:00:09;;;;;;;6.75;4.75;;;256.70;2252.80;;;;;;4883838;29;20028;-88
2023/01/17 06:02:35;;;;;;;9.25;4.95;;;256.20;2252.80;;;;;;4883412;29;20037;-88
2023/01/17 06:05:01;;;;;;;8.25;5.18;;;256.60;2252.80;;;;;;4899952;29;20036;-87
2023/01/17 06:07:26;;;;;;;8.85;5.95;;;256.60;2252.80;;;;;;4900417;29;20064;-87
2023/01/17 06:09:52;;;;;;;8.23;5.45;;;256.60;2252.80;;;;;;4883384;29;20039;-87
2023/01/17 06:12:18;;;;;;;7.78;4.60;;;256.60;2252.80;;;;;;4883621;29;20028;-87
2023/01/17 06:14:43;;;;;;;9.70;6.18;;;256.60;2252.80;;;;;;4883568;29;20021;-87
2023/01/17 06:17:09;;;;;;;9.20;6.10;;;256.50;2252.80;;;;;;4883362;29;20025;-87
2023/01/17 06:19:35;;;;;;;9.30;7.38;;;256.50;2252.80;;;;;;4900414;29;20456;-87
2023/01/17 06:22:02;;;;;;;10.45;7.55;;;256.40;2252.80;;;;;;4883038;29;20040;-87
2023/01/17 06:24:29;;;;;;;8.57;5.90;;;256.40;2252.80;;;;;;4872022;29;20393;-87
2023/01/17 06:26:55;;;;;;;9.27;6.15;;;256.40;2252.80;;;;;;4864731;29;20172;-87
2023/01/17 06:29:21;;;;;;;20.05;10.50;;;256.40;2252.80;;;;;;4865153;29;20466;-87
2023/01/17 06:31:46;;;;;;;353.50;170.88;;;256.40;2252.80;;;;;;4864775;29;20123;-87
2023/01/17 06:34:12;;;;;;;206.35;103.53;;;256.40;2252.80;;;;;;4864803;29;20036;-87
2023/01/17 06:36:38;;;;;;;52.78;27.85;;;256.30;2252.80;;;;;;4881123;29;20025;-87
2023/01/17 06:39:04;;;;;;;29.90;19.40;;;256.30;2252.80;;;;;;4864541;29;20036;-87
2023/01/17 06:41:29;;;;;;;27.00;18.58;;;256.40;2252.80;;;;;;4864030;29;20036;-86
2023/01/17 06:43:55;;;;;;;35.63;23.30;;;256.40;2252.80;;;;;;4862848;29;20032;-87
2023/01/17 06:46:24;;;;;;;18.88;12.00;;;256.40;2252.80;;;;;;4845733;29;20036;-88
2023/01/17 06:48:50;;;;;;;15.98;9.73;;;256.30;2252.80;;;;;;4845342;29;20029;-87
2023/01/17 06:51:16;;;;;;;16.95;9.73;;;256.30;2252.80;;;;;;4844859;29;20136;-86
2023/01/17 06:53:42;;;;;;;13.30;8.80;;;256.30;2252.80;;;;;;4845845;29;20029;-88
2023/01/17 06:56:08;;;;;;;42.70;27.23;;;256.30;2252.80;;;;;;4846062;29;20359;-88
2023/01/17 06:58:35;;;;;;;35.42;23.17;;;256.40;2252.80;;;;;;4846241;29;20492;-87
2023/01/17 07:01:08;;;;;;;21.90;13.30;;;256.40;2252.80;;;;;;4845751;29;20026;-86
2023/01/17 07:03:34;;;;;;;16.77;9.35;;;256.40;2252.80;;;;;;4845888;29;20041;-87
2023/01/17 07:06:01;;;;;;;14.85;9.52;;;256.40;2252.80;;;;;;4845630;29;20034;-86
2023/01/17 07:08:27;;;;;;;12.57;9.77;;;256.50;2252.80;;;;;;4845699;29;20029;-88
2023/01/17 07:10:59;;;;;;;12.40;9.10;;;256.50;2252.80;;;;;;4845523;29;20029;-87
2023/01/17 07:13:25;;;;;;;24.30;16.88;;;256.60;2252.80;;;;;;4845521;29;20034;-88
2023/01/17 07:15:51;;;;;;;56.55;47.53;;;256.50;2252.80;;;;;;4845655;29;20034;-87
2023/01/17 07:18:19;;;;;;;24.80;21.83;;;256.60;2252.80;;;;;;4845647;29;20040;-88
2023/01/17 07:20:45;;;;;;;15.80;11.57;;;256.60;2252.80;;;;;;4845347;29;20025;-88
2023/01/17 07:23:11;;;;;;;14.38;11.00;;;256.60;2252.80;;;;;;4862702;29;20066;-89
2023/01/17 07:25:37;;;;;;;16.23;12.18;;;256.60;2252.80;;;;;;4864152;29;20033;-86
2023/01/17 07:28:03;;;;;;;15.40;11.23;;;256.60;2252.80;;;;;;4864040;29;20033;-87
2023/01/17 07:30:29;;;;;;;11.55;8.07;;;256.70;2252.80;;;;;;4864326;29;20036;-80
2023/01/17 07:32:55;;;;;;;16.92;12.90;;;256.70;2252.80;;;;;;4864368;29;20488;-80
2023/01/17 07:35:22;;;;;;;14.18;10.38;;;256.70;2252.80;;;;;;4868923;29;20029;-80
2023/01/17 07:37:49;;;;;;;12.55;9.40;;;256.80;2252.80;;;;;;4882607;29;20021;-87
2023/01/17 07:40:16;;;;;;;16.23;13.25;;;256.80;2252.80;;;;;;4881871;29;20039;-87
2023/01/17 07:42:43;;;;;;;19.17;13.18;;;256.90;2252.80;;;;;;4882266;29;20028;-86
2023/01/17 07:45:10;;;;;;;18.98;12.00;;;256.90;2252.80;;;;;;4882591;29;20080;-88
2023/01/17 07:47:36;;;;;;;11.07;9.15;;;281.60;2278.40;;;;;;4882449;29;20025;-84
2023/01/17 07:50:03;;;;;;;16.23;10.57;;;281.70;2278.40;;;;;;4882313;29;20055;-88
2023/01/17 07:52:29;;;;;;;20.88;12.55;;;281.80;2278.40;;;;;;4885139;29;20040;-87
2023/01/17 07:54:54;;;;;;;16.65;10.40;;;281.90;2278.40;;;;;;4885817;29;20028;-87
2023/01/17 07:57:20;;;;;;;17.02;10.07;;;281.90;2278.40;;;;;;4902895;29;20076;-86
2023/01/17 07:59:46;;;;;;;17.10;11.88;;;282.10;2278.40;;;;;;4886158;29;20059;-87
2023/01/17 08:02:20;;;;;;;14.05;9.73;;;282.20;2278.40;;;;;;4885452;29;20457;-86
2023/01/17 08:04:47;;;;;;;12.20;8.00;;;282.30;2278.40;;;;;;4885742;29;20029;-86
2023/01/17 08:07:13;;;;;;;20.08;12.00;;;282.30;2278.40;;;;;;4885664;29;20119;-87
2023/01/17 08:09:41;;;;;;;18.00;12.82;;;282.40;2278.40;;;;;;4885431;29;20079;-86
2023/01/17 08:12:07;;;;;;;12.23;9.77;;;282.50;2278.40;;;;;;4885520;29;20033;-84
2023/01/17 08:14:33;;;;;;;10.82;7.78;;;282.50;2278.40;;;;;;4885696;29;20039;-85
2023/01/17 08:17:20;;;;;;;12.40;7.63;;;282.50;2278.40;;;;;;4885314;29;20029;-85
2023/01/17 08:19:48;;;;;;;23.52;17.58;;;307.20;2304.00;;;;;;4885337;29;20119;-85
2023/01/17 08:22:14;;;;;;;8.77;6.57;;;307.20;2304.00;;;;;;4885438;29;20040;-85
2023/01/17 08:24:41;;;;;;;9.85;6.25;;;;;;;;;;4872634;29;20394;-84
2023/01/17 08:27:07;;;;;;;14.77;7.20;;;307.50;2304.00;;;;;;4866738;29;20035;-84
2023/01/17 08:29:34;;;;;;;11.35;6.57;;;307.50;2304.00;;;;;;4866852;29;20389;-85
2023/01/17 08:31:59;;;;;;;19.30;10.18;;;307.60;2304.00;;;;;;4866271;29;20037;-87
2023/01/17 08:34:25;;;;;;;13.80;8.57;;;307.60;2304.00;;;;;;4866569;29;20466;-84
2023/01/17 08:36:52;;;;;;;13.75;8.32;;;307.80;2304.00;;;;;;4861984;29;20030;-82
2023/01/17 08:39:19;;;;;;;9.70;6.35;;;307.80;2304.00;;;;;;4863394;29;20040;-86
2023/01/17 08:41:45;;;;;;;13.18;8.90;;;307.80;2304.00;;;;;;4862180;29;20029;-83
2023/01/17 08:44:11;;;;;;;11.48;6.68;;;308.00;2304.00;;;;;;4870202;29;20458;-85
2023/01/17 08:46:37;;;;;;;7.43;5.75;;;308.00;2304.00;;;;;;4866339;29;20033;-84
2023/01/17 08:49:03;;;;;;;9.48;6.47;;;308.00;2304.00;;;;;;4865612;29;20474;-85
2023/01/17 08:51:31;;;;;;;11.88;7.68;;;307.90;2304.00;;;;;;4866217;29;20040;-83
2023/01/17 08:53:57;;;;;;;10.80;7.70;;;308.00;2304.00;;;;;;4866283;29;20035;-84
2023/01/17 08:56:23;;;;;;;6.47;4.30;;;308.00;2304.00;;;;;;4882955;29;20044;-84
2023/01/17 08:58:48;;;;;;;8.75;6.57;;;308.00;2304.00;;;;;;4865880;29;20033;-84
2023/01/17 09:01:15;;;;;;;19.33;13.80;;;308.00;2304.00;;;;;;4866125;29;20029;-84
2023/01/17 09:03:41;;;;;;;21.48;13.38;;;307.90;2304.00;;;;;;4865490;29;20037;-85
2023/01/17 09:06:12;;;;;;;16.77;11.55;;;308.00;2304.00;;;;;;4865733;29;20044;-85
2023/01/17 09:08:39;;;;;;;9.95;6.97;;;308.00;2304.00;;;;;;4866044;29;20080;-84
2023/01/17 09:11:07;;;;;;;48.22;28.65;;;308.00;2304.00;;;;;;4866036;29;20494;-84
2023/01/17 09:13:34;;;;;;;20.67;14.43;;;308.10;2304.00;;;;;;4865944;29;20040;-85
2023/01/17 09:16:00;;;;;;;22.48;15.10;;;308.10;2304.00;;;;;;4866337;29;20036;-84
2023/01/17 09:18:27;;;;;;;16.75;10.38;;;308.10;2304.00;;;;;;4868285;29;20488;-87
2023/01/17 09:20:54;;;;;;;16.80;8.63;;;308.10;2304.00;;;;;;4878888;29;20032;-84
2023/01/17 09:23:24;;;;;;;18.83;8.25;;;308.00;2304.00;;;;;;4886583;29;20039;-85
2023/01/17 09:25:53;;;;;;;22.63;14.75;;;332.80;2329.60;;;;;;4903043;29;20033;-84
2023/01/17 09:28:20;;;;;;;22.55;13.55;;;332.90;2329.60;;;;;;4902979;29;20380;-84
2023/01/17 09:30:46;;;;;;;11.73;7.75;;;332.90;2329.60;;;;;;4903403;29;20035;-85
2023/01/17 09:33:12;;;;;;;15.32;10.82;;;332.90;2329.60;;;;;;4919839;29;20039;-84
2023/01/17 09:35:37;;;;;;;17.88;10.27;;;333.00;2329.60;;;;;;4902995;29;20388;-84
2023/01/17 09:38:03;;;;;;;11.30;7.07;;;333.00;2329.60;;;;;;4903241;29;20036;-81
2023/01/17 09:40:29;;;;;;;18.98;10.05;;;333.10;2329.60;;;;;;4902682;29;20035;-87
2023/01/17 09:43:02;;;;;;;12.68;7.28;;;333.20;2329.60;;;;;;4902980;29;20063;-83
2023/01/17 09:45:31;;;;;;;15.05;9.77;;;333.20;2329.60;;;;;;4885446;29;20392;-83
2023/01/17 09:48:00;;;;;;;12.93;7.70;;;333.20;2329.60;;;;;;4883393;29;20119;-82
2023/01/17 09:50:40;;;;;;;12.07;7.88;;;333.30;2329.60;;;;;;4882428;29;20091;-85
2023/01/17 09:53:13;;;;;;;15.52;9.27;;;333.40;2329.60;;;;;;4883311;29;20040;-84
2023/01/17 09:55:42;;;;;;;;;;;333.40;2329.60;;;;;;4884008;29;20461;-77
2023/01/17 09:58:24;;;;;;;34.70;15.93;;;333.50;2329.60;;;;;;4888254;29;19918;-82
2023/01/17 10:01:25;;;;;;;19.38;10.07;;;333.70;2329.60;;;;;;4883663;29;20035;-80
2023/01/17 10:04:36;;;;;;;11.05;6.18;;;358.40;2329.60;;;;;;4885669;29;20039;-79
2023/01/17 10:07:25;;;;;;;11.65;6.53;;;358.50;2329.60;;;;;;4851639;29;20108;-80
2023/01/17 10:09:54;;;;;;;11.88;6.53;;;;;;;;;;4892392;29;20028;-81
2023/01/17 10:12:32;;;;;;;8.15;5.50;;;358.70;2329.60;;;;;;4890698;29;20032;-77
2023/01/17 10:15:14;;;;;;;10.63;6.53;;;358.70;2329.60;;;;;;4886000;29;20054;-81
2023/01/17 10:17:54;;;;;;;11.95;5.68;;;358.70;2329.60;;;;;;4885966;29;20036;-81
2023/01/17 10:20:32;;;;;;;14.60;8.00;;;358.80;2329.60;;;;;;4885717;29;20413;-80
2023/01/17 10:23:25;;;;;;;9.07;6.07;;;358.90;2329.60;;;;;;4882462;29;20035;-82
2023/01/17 10:25:53;;;;;;;;;;;358.90;2329.60;;;;;;4883115;29;20052;-83
2023/01/17 10:28:30;;;;;;;20.73;11.43;;;358.90;2329.60;;;;;;4884749;29;19915;-78
2023/01/17 10:31:17;;;;;;;18.63;9.18;;;358.90;2329.60;;;;;;4904273;29;20548;-82
2023/01/17 10:34:02;;;;;;;19.42;10.75;;;358.90;2329.60;;;;;;4903557;29;20619;-80
2023/01/17 10:36:37;;;;;;;15.55;9.73;;;359.00;2329.60;;;;;;4907229;29;20028;-82
2023/01/17 10:39:27;;;;;;;11.05;8.25;;;359.10;2329.60;;;;;;4884142;29;20032;-80
2023/01/17 10:42:11;;;;;;;18.70;11.77;;;359.10;2329.60;;;;;;4885818;29;20037;-81
2023/01/17 10:44:55;;;;;;;12.52;7.47;;;359.10;2329.60;;;;;;4867788;29;20028;-82
2023/01/17 10:47:23;;;;;;;14.88;10.75;;;359.00;2329.60;;;;;;4872930;29;20105;-79
2023/01/17 10:49:52;;;;;;;15.00;8.88;;;359.10;2329.60;;;;;;4882235;29;20035;-81
2023/01/17 10:52:47;;;;;;;13.13;8.30;;;359.00;2329.60;;;;;;4901954;29;20032;-81
2023/01/17 10:55:22;;;;;;;16.27;8.98;;;359.00;2329.60;;;;;;4864182;29;20040;-83
2023/01/17 10:57:49;;;;;;;9.27;6.72;;;359.00;2329.60;;;;;;4863950;29;20037;-81
2023/01/17 11:00:42;;;;;;;15.02;8.27;;;359.00;2329.60;;;;;;4880814;29;20107;-81
2023/01/17 11:03:14;;;;;;;12.85;6.85;;;358.90;2329.60;;;;;;4868898;29;20036;-80
2023/01/17 11:05:41;;;;;;;23.13;15.73;;;358.90;2329.60;;;;;;4871471;29;20047;-80
2023/01/17 11:08:10;;;;;;;19.77;11.80;;;359.00;2329.60;;;;;;4871239;29;20047;-82
2023/01/17 11:10:53;;;;;;;16.45;10.75;;;358.90;2329.60;;;;;;4887764;29;20501;-80
2023/01/17 11:13:21;;;;;;;12.35;8.57;;;358.90;2329.60;;;;;;4871685;29;20035;-81
2023/01/17 11:16:00;;;;;;;18.27;13.20;;;358.80;2329.60;;;;;;4871274;29;20062;-83
2023/01/17 11:18:30;;;;;;;14.60;11.30;;;358.80;2329.60;;;;;;4889120;29;20418;-83
2023/01/17 11:21:19;;;;;;;16.25;11.60;;;358.80;2329.60;;;;;;4873415;29;20025;-83
2023/01/17 11:23:48;;;;;;;17.30;10.38;;;358.80;2329.60;;;;;;4871590;29;20065;-77
2023/01/17 11:26:26;;;;;;;19.40;12.30;;;358.90;2329.60;;;;;;4889716;29;20029;-81
2023/01/17 11:29:12;;;;;;;23.13;16.58;;;359.00;2329.60;;;;;;4870840;29;20028;-80
2023/01/17 11:31:38;;;;;;;15.23;10.07;;;359.00;2329.60;;;;;;4870818;29;20469;-85
2023/01/17 11:34:15;;;;;;;25.02;17.05;;;359.00;2329.60;;;;;;4873666;29;20044;-78
2023/01/17 11:36:41;;;;;;;19.55;12.10;;;359.00;2329.60;;;;;;4878197;29;20476;-78
2023/01/17 11:39:26;;;;;;;25.17;16.92;;;359.00;2329.60;;;;;;4879480;29;20033;-82
2023/01/17 11:41:52;;;;;;;17.17;9.48;;;359.00;2329.60;;;;;;4874020;29;20055;-80
2023/01/17 11:44:25;;;;;;;10.50;7.35;;;359.00;2329.60;;;;;;4881956;29;20042;-85
2023/01/17 11:47:08;;;;;;;23.65;17.77;;;359.00;2329.60;;;;;;4876560;29;20055;-82
2023/01/17 11:49:34;;;;;;;14.88;11.13;;;359.00;2329.60;;;;;;4881659;29;20043;-83
2023/01/17 11:52:06;;;;;;;14.07;9.68;;;359.00;2329.60;;;;;;4882656;29;20032;-82
2023/01/17 11:54:38;;;;;;;21.52;13.35;;;359.00;2329.60;;;;;;4892954;29;20461;-83
2023/01/17 11:57:16;;;;;;;8.65;4.97;;;359.00;2329.60;;;;;;4916477;29;20037;-76
2023/01/17 11:59:43;;;;;;;12.40;8.27;;;359.00;2329.60;;;;;;4903105;29;20120;-75
2023/01/17 12:02:30;;;;;;;14.38;8.82;;;359.00;2329.60;;;;;;4905591;29;20032;-76
2023/01/17 12:05:25;;;;;;;14.45;7.22;;;359.00;2329.60;;;;;;4889608;29;20400;-82
2023/01/17 12:07:56;;;;;;;10.75;7.50;;;358.90;2329.60;;;;;;4889048;29;20456;-82
2023/01/17 12:10:33;;;;;;;14.88;6.90;;;358.90;2329.60;;;;;;4902989;29;20060;-82
2023/01/17 12:16:29;;;;;;;8.15;5.50;;;359.00;2329.60;;;;;;4903642;29;20155;-77
2023/01/17 12:19:07;;;;;;;12.10;7.25;;;359.00;2329.60;;;;;;4906446;29;20372;-82
2023/01/17 12:22:03;;;;;;;21.15;12.18;;;359.00;2329.60;;;;;;4911454;29;20028;-83
2023/01/17 12:24:55;;;;;;;26.27;14.35;;;359.00;2329.60;;;;;;4909484;29;20056;-84
2023/01/17 12:27:26;;;;;;;27.05;16.92;;;359.00;2329.60;;;;;;4895041;29;20031;-84
2023/01/17 12:29:58;;;;;;;48.65;32.13;;;359.00;2329.60;;;;;;4891416;29;20059;-83
2023/01/17 12:32:30;;;;;;;29.13;17.98;;;359.00;2329.60;;;;;;4900240;29;20037;-83
2023/01/17 12:35:19;;;;;;;17.83;13.38;;;359.00;2329.60;;;;;;4900660;29;20067;-82
2023/01/17 12:37:52;;;;;;;18.83;10.15;;;359.00;2329.60;;;;;;4900799;29;20066;-85
2023/01/17 12:40:22;;;;;;;14.23;10.27;;;359.00;2329.60;;;;;;4890244;29;20075;-84
2023/01/17 12:43:25;;;;;;;17.75;9.93;;;358.90;2329.60;;;;;;4897717;29;20063;-84
2023/01/17 12:45:53;;;;;;;15.63;10.10;;;358.90;2329.60;;;;;;4854930;29;20068;-84
2023/01/17 12:48:22;;;;;;;15.02;10.60;;;358.90;2329.60;;;;;;4887023;29;20131;-86
2023/01/17 12:51:00;;;;;;;23.75;12.18;;;358.90;2329.60;;;;;;4864778;29;20485;-83
2023/01/17 12:53:44;;;;;;;23.60;9.70;;;358.90;2329.60;;;;;;4882631;29;20029;-85
2023/01/17 12:56:37;;;;;;;27.17;16.02;;;358.90;2329.60;;;;;;4866253;29;20033;-83
2023/01/17 12:59:10;;;;;;;;;;;359.00;2329.60;;;;;;4866162;29;20359;-83
2023/01/17 13:01:38;;;;;;;14.27;10.50;;;359.00;2329.60;;;;;;4866186;29;19907;-84
2023/01/17 13:04:07;;;;;;;17.77;9.60;;;358.90;2329.60;;;;;;4866012;29;20083;-83
2023/01/17 13:07:00;;;;;;;15.23;11.30;;;359.00;2329.60;;;;;;4865995;29;20100;-82
2023/01/17 13:09:32;;;;;;;17.75;9.60;;;359.00;2329.60;;;;;;4860993;29;20454;-82
2023/01/17 13:12:06;;;;;;;18.70;11.57;;;359.10;2329.60;;;;;;4866054;29;20029;-83
2023/01/17 13:14:32;;;;;;;16.30;10.52;;;359.10;2329.60;;;;;;4866379;29;20033;-83
2023/01/17 13:17:01;;;;;;;18.55;12.45;;;359.30;2329.60;;;;;;4865982;29;20385;-82
2023/01/17 13:19:50;;;;;;;15.43;9.25;;;384.10;2329.60;;;;;;4866076;29;20029;-85
2023/01/17 13:22:18;;;;;;;21.13;10.77;;;384.20;2329.60;;;;;;4871066;29;20040;-82
2023/01/17 13:25:07;;;;;;;14.32;7.65;;;384.30;2329.60;;;;;;4884178;29;20495;-83
2023/01/17 13:28:02;;;;;;;11.73;7.28;;;384.30;2329.60;;;;;;4891466;29;20070;-83
2023/01/17 13:30:42;;;;;;;13.75;8.35;;;384.40;2329.60;;;;;;4905900;29;20013;-82
2023/01/17 13:33:22;;;;;;;29.52;13.25;;;384.40;2329.60;;;;;;4894678;29;20029;-85
2023/01/17 13:36:33;;;;;;;14.15;7.82;;;384.40;2329.60;;;;;;4885145;29;20032;-86
2023/01/17 13:39:10;;;;;;;17.70;8.93;;;384.50;2329.60;;;;;;4884091;29;20469;-85
2023/01/17 13:41:45;;;;;;;11.60;6.93;;;384.60;2329.60;;;;;;4884341;29;20029;-86
2023/01/17 13:44:23;;;;;;;10.40;7.22;;;384.70;2329.60;;;;;;4884276;29;20096;-85
2023/01/17 13:46:55;;;;;;;11.82;7.18;;;384.60;2329.60;;;;;;4883861;29;20028;-83
2023/01/17 13:49:33;;;;;;;14.63;10.03;;;384.60;2329.60;;;;;;4884112;29;20441;-87
2023/01/17 13:52:09;;;;;;;15.05;7.88;;;384.50;2329.60;;;;;;4900966;29;20449;-83
2023/01/17 13:55:05;;;;;;;12.48;7.70;;;384.50;2329.60;;;;;;4884287;29;20036;-86